SWR849W EDDL-LSZH
Flight info
| Callsign | SWR849W |
|---|---|
| Flight time | 0h 50m |
| Altitude | 27000 |
| Route | DODEN7Z/05R DODEN Y852 TUSUK DCT ULNOK L607 SUNEG T721 RILAX |
| Aircraft | A321/M-SDE3FGHIRWY/LB1 |
Departure
| Time | 2026-05-05 17:19 |
|---|---|
| Airport | Düsseldorf Airport (EDDL) |
Arrival
| Time | 2026-05-05 18:10 |
|---|---|
| Airport | Zürich Airport (LSZH) |
| Time | Latitude | Longitude | Altitude | Speed | Heading |
|---|---|---|---|---|---|
| 2026-05-05 16:24 | 51.27866 | 6.76385 | 131 ft | 0 kts | 45° |
| 2026-05-05 17:09 | 51.27856 | 6.76368 | 127 ft | 3 kts | 51° |
| 2026-05-05 17:09 | 51.27845 | 6.76342 | 128 ft | 3 kts | 71° |
| 2026-05-05 17:10 | 51.27841 | 6.76316 | 127 ft | 2 kts | 89° |
| 2026-05-05 17:10 | 51.27841 | 6.76284 | 130 ft | 3 kts | 89° |
| 2026-05-05 17:10 | 51.27841 | 6.76252 | 130 ft | 3 kts | 89° |
| 2026-05-05 17:10 | 51.27840 | 6.76220 | 130 ft | 3 kts | 90° |
| 2026-05-05 17:11 | 51.27840 | 6.76187 | 130 ft | 3 kts | 90° |
| 2026-05-05 17:11 | 51.27841 | 6.76155 | 130 ft | 3 kts | 90° |
| 2026-05-05 17:11 | 51.27841 | 6.76123 | 130 ft | 3 kts | 91° |
| 2026-05-05 17:11 | 51.27841 | 6.76090 | 129 ft | 3 kts | 91° |
| 2026-05-05 17:12 | 51.27842 | 6.76058 | 129 ft | 3 kts | 91° |
| 2026-05-05 17:12 | 51.27842 | 6.76026 | 126 ft | 3 kts | 92° |
| 2026-05-05 17:12 | 51.27843 | 6.75993 | 125 ft | 3 kts | 92° |
| 2026-05-05 17:12 | 51.27844 | 6.75961 | 126 ft | 3 kts | 92° |
| 2026-05-05 17:13 | 51.27844 | 6.75937 | 126 ft | 0 kts | 91° |
| 2026-05-05 17:15 | 51.27844 | 6.75950 | 126 ft | 5 kts | 91° |
| 2026-05-05 17:15 | 51.27861 | 6.76017 | 127 ft | 7 kts | 53° |
| 2026-05-05 17:15 | 51.27907 | 6.76044 | 130 ft | 8 kts | 8° |
| 2026-05-05 17:16 | 51.27962 | 6.76048 | 130 ft | 8 kts | 0° |
| 2026-05-05 17:16 | 51.28016 | 6.76046 | 125 ft | 8 kts | 358° |
| 2026-05-05 17:16 | 51.28081 | 6.76037 | 130 ft | 13 kts | 343° |
| 2026-05-05 17:16 | 51.28082 | 6.75924 | 126 ft | 14 kts | 235° |
| 2026-05-05 17:17 | 51.28004 | 6.75759 | 125 ft | 23 kts | 233° |
| 2026-05-05 17:17 | 51.27917 | 6.75586 | 126 ft | 16 kts | 232° |
| 2026-05-05 17:17 | 51.27865 | 6.75474 | 122 ft | 11 kts | 234° |
| 2026-05-05 17:17 | 51.27855 | 6.75356 | 124 ft | 11 kts | 296° |
| 2026-05-05 17:18 | 51.27920 | 6.75287 | 118 ft | 11 kts | 333° |
| 2026-05-05 17:18 | 51.27980 | 6.75258 | 120 ft | 5 kts | 33° |
| 2026-05-05 17:18 | 51.28003 | 6.75291 | 120 ft | 4 kts | 45° |
| 2026-05-05 17:18 | 51.28008 | 6.75302 | 120 ft | 0 kts | 50° |
| 2026-05-05 17:19 | 51.28083 | 6.75455 | 125 ft | 50 kts | 52° |
| 2026-05-05 17:19 | 51.28439 | 6.76183 | 127 ft | 114 kts | 52° |
| 2026-05-05 17:19 | 51.29035 | 6.77392 | 170 ft | 157 kts | 48° |
| 2026-05-05 17:19 | 51.29642 | 6.78634 | 973 ft | 137 kts | 52° |
| 2026-05-05 17:20 | 51.30225 | 6.79930 | 1398 ft | 148 kts | 54° |
| 2026-05-05 17:20 | 51.30887 | 6.81337 | 1723 ft | 167 kts | 54° |
| 2026-05-05 17:20 | 51.31616 | 6.82890 | 2089 ft | 180 kts | 55° |
| 2026-05-05 17:20 | 51.32401 | 6.84574 | 2363 ft | 197 kts | 54° |
| 2026-05-05 17:21 | 51.33258 | 6.86402 | 2551 ft | 216 kts | 54° |
| 2026-05-05 17:21 | 51.34238 | 6.88434 | 2634 ft | 246 kts | 53° |
| 2026-05-05 17:21 | 51.35075 | 6.90883 | 3051 ft | 260 kts | 77° |
| 2026-05-05 17:22 | 51.34928 | 6.96651 | 4567 ft | 266 kts | 103° |
| 2026-05-05 17:22 | 51.34579 | 6.99633 | 5353 ft | 270 kts | 102° |
| 2026-05-05 17:22 | 51.34266 | 7.02609 | 6127 ft | 273 kts | 101° |
| 2026-05-05 17:22 | 51.33966 | 7.05589 | 6851 ft | 276 kts | 101° |
| 2026-05-05 17:23 | 51.33665 | 7.08637 | 7574 ft | 279 kts | 101° |
| 2026-05-05 17:23 | 51.33360 | 7.11726 | 8313 ft | 283 kts | 100° |
| 2026-05-05 17:23 | 51.33025 | 7.14840 | 9059 ft | 286 kts | 106° |
| 2026-05-05 17:23 | 51.32304 | 7.17802 | 9750 ft | 287 kts | 121° |
| 2026-05-05 17:24 | 51.31114 | 7.20358 | 10431 ft | 289 kts | 136° |
| 2026-05-05 17:24 | 51.29641 | 7.22692 | 10691 ft | 309 kts | 137° |
| 2026-05-05 17:24 | 51.28050 | 7.25186 | 10849 ft | 332 kts | 137° |
| 2026-05-05 17:24 | 51.26361 | 7.27833 | 11211 ft | 345 kts | 136° |
| 2026-05-05 17:25 | 51.24637 | 7.30542 | 11836 ft | 350 kts | 136° |
| 2026-05-05 17:25 | 51.23490 | 7.32349 | 12263 ft | 353 kts | 136° |
| 2026-05-05 17:25 | 51.21148 | 7.36048 | 13151 ft | 356 kts | 136° |
| 2026-05-05 17:25 | 51.19375 | 7.38842 | 13778 ft | 359 kts | 137° |
| 2026-05-05 17:26 | 51.17592 | 7.41645 | 14336 ft | 361 kts | 137° |
| 2026-05-05 17:26 | 51.15799 | 7.44462 | 14886 ft | 364 kts | 137° |
| 2026-05-05 17:26 | 51.13979 | 7.47299 | 15415 ft | 366 kts | 137° |
| 2026-05-05 17:26 | 51.12136 | 7.50132 | 15930 ft | 369 kts | 138° |
| 2026-05-05 17:27 | 51.10269 | 7.52975 | 16463 ft | 372 kts | 138° |
| 2026-05-05 17:27 | 51.08392 | 7.55825 | 16977 ft | 375 kts | 138° |
| 2026-05-05 17:27 | 51.06525 | 7.58658 | 17512 ft | 378 kts | 138° |
| 2026-05-05 17:27 | 51.04616 | 7.61556 | 18026 ft | 381 kts | 138° |
| 2026-05-05 17:28 | 51.02687 | 7.64483 | 18477 ft | 384 kts | 139° |
| 2026-05-05 17:28 | 51.00755 | 7.67415 | 18913 ft | 386 kts | 139° |
| 2026-05-05 17:28 | 50.98799 | 7.70386 | 19333 ft | 389 kts | 139° |
| 2026-05-05 17:28 | 50.96805 | 7.73296 | 19754 ft | 390 kts | 143° |
| 2026-05-05 17:29 | 50.94564 | 7.75730 | 20161 ft | 391 kts | 150° |
| 2026-05-05 17:29 | 50.92244 | 7.78009 | 20593 ft | 393 kts | 150° |
| 2026-05-05 17:29 | 50.89914 | 7.80295 | 21003 ft | 395 kts | 150° |
| 2026-05-05 17:29 | 50.87565 | 7.82602 | 21430 ft | 398 kts | 150° |
| 2026-05-05 17:30 | 50.85208 | 7.84919 | 21851 ft | 400 kts | 150° |
| 2026-05-05 17:30 | 50.82834 | 7.87252 | 22281 ft | 403 kts | 150° |
| 2026-05-05 17:30 | 50.80448 | 7.89600 | 22710 ft | 406 kts | 150° |
| 2026-05-05 17:30 | 50.78045 | 7.91966 | 23140 ft | 408 kts | 150° |
| 2026-05-05 17:31 | 50.75622 | 7.94340 | 23538 ft | 411 kts | 150° |
| 2026-05-05 17:31 | 50.73184 | 7.96715 | 23906 ft | 413 kts | 151° |
| 2026-05-05 17:31 | 50.70630 | 7.98591 | 24239 ft | 412 kts | 165° |
| 2026-05-05 17:31 | 50.67818 | 7.99825 | 24614 ft | 413 kts | 167° |
| 2026-05-05 17:32 | 50.65074 | 8.00982 | 24976 ft | 415 kts | 167° |
| 2026-05-05 17:32 | 50.62281 | 8.02138 | 25341 ft | 416 kts | 167° |
| 2026-05-05 17:32 | 50.59466 | 8.03291 | 25706 ft | 418 kts | 167° |
| 2026-05-05 17:32 | 50.56657 | 8.04473 | 25987 ft | 419 kts | 166° |
| 2026-05-05 17:33 | 50.53855 | 8.05721 | 26229 ft | 420 kts | 166° |
| 2026-05-05 17:33 | 50.51045 | 8.07015 | 26482 ft | 421 kts | 165° |
| 2026-05-05 17:33 | 50.48224 | 8.08334 | 26728 ft | 422 kts | 165° |
| 2026-05-05 17:33 | 50.45417 | 8.09643 | 26822 ft | 419 kts | 165° |
| 2026-05-05 17:34 | 50.42640 | 8.10928 | 26829 ft | 415 kts | 166° |
| 2026-05-05 17:34 | 50.39864 | 8.12193 | 26825 ft | 414 kts | 166° |
| 2026-05-05 17:34 | 50.37097 | 8.13445 | 26825 ft | 413 kts | 166° |
| 2026-05-05 17:34 | 50.34339 | 8.14686 | 26833 ft | 413 kts | 166° |
| 2026-05-05 17:35 | 50.31546 | 8.15937 | 26950 ft | 420 kts | 166° |
| 2026-05-05 17:35 | 50.28719 | 8.17209 | 27328 ft | 421 kts | 166° |
| 2026-05-05 17:35 | 50.25903 | 8.18477 | 27805 ft | 420 kts | 166° |
| 2026-05-05 17:35 | 50.23095 | 8.19739 | 28107 ft | 419 kts | 165° |
| 2026-05-05 17:36 | 50.20295 | 8.20997 | 28374 ft | 418 kts | 165° |
| 2026-05-05 17:36 | 50.17507 | 8.22250 | 28655 ft | 417 kts | 165° |
| 2026-05-05 17:36 | 50.14717 | 8.23499 | 28824 ft | 416 kts | 165° |
| 2026-05-05 17:37 | 50.09149 | 8.25997 | 28848 ft | 415 kts | 165° |
| 2026-05-05 17:37 | 50.03624 | 8.28466 | 28850 ft | 409 kts | 165° |
| 2026-05-05 17:38 | 49.98280 | 8.30853 | 28850 ft | 398 kts | 165° |
| 2026-05-05 17:38 | 49.92839 | 8.33261 | 28848 ft | 413 kts | 165° |
| 2026-05-05 17:39 | 49.87299 | 8.35714 | 28840 ft | 415 kts | 165° |
| 2026-05-05 17:39 | 49.81733 | 8.38163 | 28841 ft | 415 kts | 165° |
| 2026-05-05 17:40 | 49.76170 | 8.40620 | 28830 ft | 415 kts | 165° |
| 2026-05-05 17:40 | 49.70609 | 8.43067 | 28829 ft | 415 kts | 165° |
| 2026-05-05 17:41 | 49.65055 | 8.45511 | 28834 ft | 415 kts | 165° |
| 2026-05-05 17:41 | 49.59530 | 8.47932 | 28829 ft | 415 kts | 165° |
| 2026-05-05 17:42 | 49.53977 | 8.50353 | 28829 ft | 414 kts | 165° |
| 2026-05-05 17:42 | 49.48421 | 8.52777 | 28821 ft | 414 kts | 165° |
| 2026-05-05 17:43 | 49.42867 | 8.55177 | 28827 ft | 414 kts | 165° |
| 2026-05-05 17:43 | 49.37318 | 8.57582 | 28817 ft | 415 kts | 165° |
| 2026-05-05 17:44 | 49.31756 | 8.60010 | 28819 ft | 415 kts | 165° |
| 2026-05-05 17:44 | 49.26183 | 8.62418 | 28816 ft | 416 kts | 165° |
| 2026-05-05 17:45 | 49.20613 | 8.64820 | 28817 ft | 416 kts | 165° |
| 2026-05-05 17:45 | 49.15055 | 8.67203 | 28818 ft | 416 kts | 166° |
| 2026-05-05 17:46 | 49.09439 | 8.69501 | 28798 ft | 417 kts | 166° |
| 2026-05-05 17:46 | 49.06639 | 8.70620 | 28392 ft | 416 kts | 166° |
| 2026-05-05 17:46 | 49.03846 | 8.71736 | 27984 ft | 413 kts | 166° |
| 2026-05-05 17:46 | 49.01077 | 8.72851 | 27585 ft | 410 kts | 166° |
| 2026-05-05 17:47 | 48.98333 | 8.73960 | 27193 ft | 408 kts | 166° |
| 2026-05-05 17:47 | 48.95605 | 8.75066 | 26788 ft | 406 kts | 166° |
| 2026-05-05 17:47 | 48.92900 | 8.76162 | 26415 ft | 404 kts | 166° |
| 2026-05-05 17:47 | 48.90134 | 8.77071 | 26036 ft | 400 kts | 174° |
| 2026-05-05 17:48 | 48.87401 | 8.77308 | 25670 ft | 397 kts | 182° |
| 2026-05-05 17:48 | 48.84658 | 8.76876 | 25296 ft | 394 kts | 191° |
| 2026-05-05 17:48 | 48.81963 | 8.76137 | 24938 ft | 392 kts | 191° |
| 2026-05-05 17:48 | 48.79276 | 8.75410 | 24600 ft | 391 kts | 191° |
| 2026-05-05 17:49 | 48.76605 | 8.74691 | 24292 ft | 389 kts | 191° |
| 2026-05-05 17:49 | 48.73935 | 8.73973 | 24045 ft | 389 kts | 190° |
| 2026-05-05 17:49 | 48.71272 | 8.73258 | 23739 ft | 388 kts | 190° |
| 2026-05-05 17:49 | 48.69520 | 8.72791 | 23534 ft | 387 kts | 190° |
| 2026-05-05 17:50 | 48.66867 | 8.72085 | 23241 ft | 386 kts | 190° |
| 2026-05-05 17:50 | 48.64224 | 8.71385 | 22883 ft | 384 kts | 190° |
| 2026-05-05 17:50 | 48.61605 | 8.70689 | 22530 ft | 382 kts | 190° |
| 2026-05-05 17:50 | 48.58999 | 8.69998 | 22183 ft | 380 kts | 190° |
| 2026-05-05 17:51 | 48.56401 | 8.69307 | 21835 ft | 377 kts | 190° |
| 2026-05-05 17:51 | 48.53821 | 8.68620 | 21504 ft | 375 kts | 191° |
| 2026-05-05 17:51 | 48.51248 | 8.67938 | 21154 ft | 373 kts | 191° |
| 2026-05-05 17:51 | 48.48701 | 8.67267 | 20818 ft | 371 kts | 191° |
| 2026-05-05 17:52 | 48.46182 | 8.66603 | 20519 ft | 363 kts | 191° |
| 2026-05-05 17:52 | 48.43740 | 8.65962 | 20378 ft | 347 kts | 191° |
| 2026-05-05 17:52 | 48.41433 | 8.65358 | 20233 ft | 334 kts | 191° |
| 2026-05-05 17:52 | 48.39155 | 8.64758 | 20028 ft | 323 kts | 191° |
| 2026-05-05 17:53 | 48.36954 | 8.64165 | 19647 ft | 319 kts | 192° |
| 2026-05-05 17:53 | 48.34787 | 8.63528 | 19210 ft | 316 kts | 193° |
| 2026-05-05 17:53 | 48.32666 | 8.62880 | 18795 ft | 314 kts | 193° |
| 2026-05-05 17:53 | 48.30541 | 8.62225 | 18606 ft | 313 kts | 194° |
| 2026-05-05 17:54 | 48.28402 | 8.61564 | 18452 ft | 313 kts | 194° |
| 2026-05-05 17:54 | 48.26267 | 8.60908 | 18324 ft | 313 kts | 194° |
| 2026-05-05 17:54 | 48.24134 | 8.60258 | 18185 ft | 312 kts | 194° |
| 2026-05-05 17:54 | 48.22007 | 8.59614 | 18022 ft | 311 kts | 194° |
| 2026-05-05 17:55 | 48.19885 | 8.58977 | 17873 ft | 311 kts | 194° |
| 2026-05-05 17:55 | 48.17769 | 8.58347 | 17846 ft | 310 kts | 194° |
| 2026-05-05 17:55 | 48.15645 | 8.57709 | 17665 ft | 311 kts | 194° |
| 2026-05-05 17:55 | 48.13531 | 8.57076 | 17402 ft | 309 kts | 194° |
| 2026-05-05 17:56 | 48.11430 | 8.56448 | 17133 ft | 307 kts | 194° |
| 2026-05-05 17:56 | 48.09337 | 8.55824 | 16872 ft | 306 kts | 194° |
| 2026-05-05 17:56 | 48.07252 | 8.55205 | 16613 ft | 304 kts | 194° |
| 2026-05-05 17:56 | 48.05174 | 8.54589 | 16349 ft | 303 kts | 194° |
| 2026-05-05 17:57 | 48.03106 | 8.54017 | 16096 ft | 302 kts | 188° |
| 2026-05-05 17:57 | 48.01009 | 8.53727 | 15839 ft | 300 kts | 193° |
| 2026-05-05 17:57 | 47.98974 | 8.53074 | 15549 ft | 298 kts | 191° |
| 2026-05-05 17:57 | 47.96934 | 8.53160 | 15149 ft | 302 kts | 168° |
| 2026-05-05 17:58 | 47.95048 | 8.54554 | 14724 ft | 309 kts | 144° |
| 2026-05-05 17:58 | 47.93679 | 8.57087 | 14296 ft | 316 kts | 120° |
| 2026-05-05 17:58 | 47.92832 | 8.60086 | 13925 ft | 318 kts | 114° |
| 2026-05-05 17:58 | 47.92043 | 8.63228 | 13599 ft | 319 kts | 114° |
| 2026-05-05 17:59 | 47.91286 | 8.66285 | 13260 ft | 318 kts | 114° |
| 2026-05-05 17:59 | 47.90348 | 8.69222 | 12911 ft | 309 kts | 131° |
| 2026-05-05 17:59 | 47.89774 | 8.70210 | 12767 ft | 304 kts | 142° |
| 2026-05-05 17:59 | 47.88392 | 8.71602 | 12541 ft | 295 kts | 162° |
| 2026-05-05 18:00 | 47.86448 | 8.72405 | 12229 ft | 290 kts | 173° |
| 2026-05-05 18:00 | 47.84468 | 8.72967 | 11927 ft | 289 kts | 173° |
| 2026-05-05 18:00 | 47.82495 | 8.73500 | 11619 ft | 287 kts | 174° |
| 2026-05-05 18:00 | 47.80534 | 8.74029 | 11316 ft | 286 kts | 174° |
| 2026-05-05 18:01 | 47.78585 | 8.74555 | 11018 ft | 284 kts | 174° |
| 2026-05-05 18:01 | 47.76640 | 8.74850 | 10718 ft | 277 kts | 189° |
| 2026-05-05 18:01 | 47.74859 | 8.73972 | 10387 ft | 269 kts | 216° |
| 2026-05-05 18:01 | 47.73599 | 8.71984 | 10077 ft | 266 kts | 242° |
| 2026-05-05 18:02 | 47.72966 | 8.69402 | 9767 ft | 266 kts | 252° |
| 2026-05-05 18:02 | 47.72486 | 8.66749 | 9427 ft | 265 kts | 253° |
| 2026-05-05 18:02 | 47.72078 | 8.64420 | 9130 ft | 265 kts | 253° |
| 2026-05-05 18:02 | 47.71613 | 8.61781 | 8785 ft | 264 kts | 253° |
| 2026-05-05 18:03 | 47.71148 | 8.59149 | 8450 ft | 262 kts | 253° |
| 2026-05-05 18:03 | 47.70689 | 8.56544 | 8096 ft | 260 kts | 253° |
| 2026-05-05 18:03 | 47.70233 | 8.53951 | 7689 ft | 258 kts | 254° |
| 2026-05-05 18:03 | 47.69778 | 8.51386 | 7273 ft | 256 kts | 253° |
| 2026-05-05 18:04 | 47.69330 | 8.48869 | 6886 ft | 255 kts | 253° |
| 2026-05-05 18:04 | 47.68871 | 8.46301 | 6532 ft | 254 kts | 254° |
| 2026-05-05 18:04 | 47.68412 | 8.43774 | 6239 ft | 253 kts | 253° |
| 2026-05-05 18:04 | 47.67695 | 8.41414 | 5930 ft | 252 kts | 237° |
| 2026-05-05 18:05 | 47.66688 | 8.39328 | 5600 ft | 250 kts | 234° |
| 2026-05-05 18:05 | 47.65618 | 8.37292 | 5272 ft | 251 kts | 227° |
| 2026-05-05 18:05 | 47.64162 | 8.35920 | 5113 ft | 248 kts | 201° |
| 2026-05-05 18:05 | 47.62471 | 8.35624 | 5014 ft | 241 kts | 177° |
| 2026-05-05 18:06 | 47.60902 | 8.36372 | 4796 ft | 242 kts | 152° |
| 2026-05-05 18:06 | 47.60009 | 8.37407 | 4640 ft | 240 kts | 141° |
| 2026-05-05 18:06 | 47.58422 | 8.39604 | 4206 ft | 230 kts | 141° |
| 2026-05-05 18:06 | 47.57277 | 8.41185 | 3892 ft | 219 kts | 141° |
| 2026-05-05 18:07 | 47.56185 | 8.42686 | 3609 ft | 208 kts | 141° |
| 2026-05-05 18:07 | 47.55162 | 8.44086 | 3327 ft | 194 kts | 141° |
| 2026-05-05 18:07 | 47.54194 | 8.45412 | 3051 ft | 183 kts | 140° |
| 2026-05-05 18:07 | 47.53294 | 8.46649 | 2808 ft | 170 kts | 140° |
| 2026-05-05 18:08 | 47.52455 | 8.47796 | 2582 ft | 160 kts | 140° |
| 2026-05-05 18:08 | 47.51652 | 8.48899 | 2383 ft | 156 kts | 140° |
| 2026-05-05 18:08 | 47.50860 | 8.49973 | 2158 ft | 155 kts | 139° |
| 2026-05-05 18:08 | 47.50077 | 8.51047 | 1920 ft | 152 kts | 139° |
| 2026-05-05 18:09 | 47.49304 | 8.52108 | 1731 ft | 152 kts | 139° |
| 2026-05-05 18:09 | 47.48534 | 8.53160 | 1560 ft | 149 kts | 139° |
| 2026-05-05 18:09 | 47.47774 | 8.54181 | 1428 ft | 143 kts | 140° |
| 2026-05-05 18:09 | 47.47104 | 8.55108 | 1384 ft | 105 kts | 138° |
| 2026-05-05 18:10 | 47.46729 | 8.55626 | 1405 ft | 47 kts | 137° |
| 2026-05-05 18:10 | 47.46576 | 8.55824 | 1400 ft | 24 kts | 143° |
| 2026-05-05 18:10 | 47.46437 | 8.55933 | 1403 ft | 21 kts | 160° |
| 2026-05-05 18:10 | 47.46368 | 8.55962 | 1401 ft | 8 kts | 166° |
| 2026-05-05 18:11 | 47.46329 | 8.55973 | 1402 ft | 3 kts | 169° |
| 2026-05-05 18:11 | 47.46309 | 8.55979 | 1409 ft | 6 kts | 168° |
| 2026-05-05 18:11 | 47.46271 | 8.55991 | 1411 ft | 3 kts | 168° |
| 2026-05-05 18:11 | 47.46253 | 8.55996 | 1410 ft | 6 kts | 171° |
| 2026-05-05 18:12 | 47.46178 | 8.56001 | 1406 ft | 16 kts | 183° |
| 2026-05-05 18:12 | 47.46071 | 8.55986 | 1407 ft | 15 kts | 186° |
| 2026-05-05 18:12 | 47.45966 | 8.55964 | 1406 ft | 15 kts | 193° |
| 2026-05-05 18:12 | 47.45871 | 8.55919 | 1414 ft | 13 kts | 199° |
| 2026-05-05 18:13 | 47.45794 | 8.55884 | 1414 ft | 11 kts | 193° |
| 2026-05-05 18:13 | 47.45713 | 8.55868 | 1411 ft | 12 kts | 187° |
| 2026-05-05 18:13 | 47.45630 | 8.55854 | 1409 ft | 12 kts | 189° |
| 2026-05-05 18:13 | 47.45557 | 8.55841 | 1411 ft | 8 kts | 186° |
| 2026-05-05 18:14 | 47.45507 | 8.55859 | 1411 ft | 7 kts | 133° |
| 2026-05-05 18:14 | 47.45496 | 8.55930 | 1407 ft | 7 kts | 95° |
| 2026-05-05 18:14 | 47.45490 | 8.55998 | 1411 ft | 6 kts | 98° |
| 2026-05-05 18:14 | 47.45483 | 8.56059 | 1407 ft | 5 kts | 114° |
| 2026-05-05 18:15 | 47.45442 | 8.56066 | 1409 ft | 9 kts | 186° |
| 2026-05-05 18:15 | 47.45418 | 8.56063 | 1411 ft | 2 kts | 186° |
| 2026-05-05 18:15 | 47.45414 | 8.56062 | 1411 ft | 0 kts | 186° |